Time;durP1;ratioP1;P1;durP2;ratioP2;P2;SDS_P1;SDS_P2;PMS_P1;PMS_P2;Temp;Humidity;BMP_temperature;BMP_pressure;BME280_temperature;BME280_humidity;BME280_pressure;Samples;Min_cycle;Max_cycle;Signal;HPM_P1;HPM_P2
2022/03/23 00:01:39;;;;;;;25.70;11.10;;;;;;;3.47;39.53;101039.23;25110;1316;3028136;-71
2022/03/23 00:04:08;;;;;;;23.20;11.00;;;;;;;3.46;39.67;101037.67;25171;1316;3027663;-70
2022/03/23 00:06:39;;;;;;;30.40;12.60;;;;;;;3.47;39.54;101039.05;25140;1316;3030538;-68
2022/03/23 00:09:09;;;;;;;26.80;12.30;;;;;;;3.45;39.14;101036.65;25189;1313;3028551;-67
2022/03/23 00:11:57;;;;;;;26.90;12.00;;;;;;;3.44;39.24;101034.58;25107;1316;3051516;-67
2022/03/23 00:14:26;;;;;;;26.30;11.70;;;;;;;3.48;39.03;101036.29;25156;1313;3026596;-68
2022/03/23 00:17:15;;;;;;;29.30;11.30;;;;;;;3.48;38.74;101036.96;25057;1316;3049115;-66
2022/03/23 00:19:45;;;;;;;23.70;11.20;;;;;;;3.48;38.74;101034.54;25045;1318;3026729;-67
2022/03/23 00:22:14;;;;;;;27.60;11.30;;;;;;;3.49;38.98;101032.29;25102;1316;3026931;-70
2022/03/23 00:24:43;;;;;;;27.90;11.90;;;;;;;3.50;38.92;101032.80;25141;1316;3052542;-70
2022/03/23 00:27:12;;;;;;;32.80;11.20;;;;;;;3.49;39.74;101032.63;25170;1316;3026582;-69
2022/03/23 00:29:45;;;;;;;31.80;11.30;;;;;;;3.46;39.55;101029.36;25162;1316;3068332;-65
2022/03/23 00:32:14;;;;;;;33.40;11.50;;;;;;;3.45;39.30;101031.10;25124;1314;3026448;-70
2022/03/23 00:34:46;;;;;;;27.00;11.80;;;;;;;3.44;39.24;101026.44;25105;1316;3053805;-68
2022/03/23 00:37:15;;;;;;;28.70;11.90;;;;;;;3.43;39.10;101026.09;25159;1313;3026721;-69
2022/03/23 00:39:44;;;;;;;30.40;12.70;;;;;;;3.39;38.91;101024.21;25103;1316;3026327;-70
2022/03/23 00:42:13;;;;;;;35.80;12.80;;;;;;;3.39;38.95;101021.79;25113;1316;3050463;-66
2022/03/23 00:44:43;;;;;;;28.50;12.10;;;;;;;3.37;39.28;101017.30;25120;1316;3027359;-68
2022/03/23 00:47:15;;;;;;;29.90;12.20;;;;;;;3.36;39.29;101015.91;25132;1314;3026199;-67
2022/03/23 00:49:47;;;;;;;31.90;12.90;;;;;;;3.34;39.38;101009.86;25139;1313;3051706;-68
2022/03/23 00:52:16;;;;;;;32.20;13.30;;;;;;;3.33;38.98;101004.84;25101;1316;3028832;-67
2022/03/23 00:54:45;;;;;;;33.60;12.90;;;;;;;3.34;39.01;101006.41;25105;1316;3026445;-69
2022/03/23 00:57:14;;;;;;;30.00;12.90;;;;;;;3.30;39.02;101006.77;25175;1316;3026554;-69
2022/03/23 00:59:43;;;;;;;29.50;13.30;;;;;;;3.27;38.50;101000.38;25110;1314;3071240;-68
2022/03/23 01:02:14;;;;;;;31.30;13.50;;;;;;;3.25;38.37;100994.50;25157;1313;3031035;-66
2022/03/23 01:04:44;;;;;;;30.50;13.30;;;;;;;3.26;38.14;100992.77;25134;1316;3051636;-68
2022/03/23 01:07:14;;;;;;;34.80;13.60;;;;;;;3.23;37.88;100992.78;25128;1313;3027110;-69
2022/03/23 01:09:45;;;;;;;32.90;13.60;;;;;;;3.24;38.12;100993.30;25149;1316;3026407;-65
2022/03/23 01:12:15;;;;;;;34.40;13.10;;;;;;;3.24;37.94;100992.61;25139;1316;3027097;-68
2022/03/23 01:14:44;;;;;;;30.50;13.20;;;;;;;3.23;37.99;100993.14;25152;1316;3026904;-66
2022/03/23 01:17:16;;;;;;;34.70;13.60;;;;;;;3.26;38.13;100993.45;25109;1316;3049147;-67
2022/03/23 01:19:46;;;;;;;32.10;13.10;;;;;;;3.27;37.85;100995.52;25127;1313;3026934;-70
2022/03/23 01:22:16;;;;;;;28.50;12.40;;;;;;;3.30;37.80;100989.98;25112;1316;3026615;-69
2022/03/23 01:24:45;;;;;;;26.50;12.10;;;;;;;3.31;37.66;100985.98;25104;1313;3027537;-67
2022/03/23 01:27:35;;;;;;;28.50;12.20;;;;;;;3.30;37.46;100980.27;25141;1316;3049672;-68
2022/03/23 01:30:06;;;;;;;30.20;13.30;;;;;;;3.32;37.58;100982.34;25174;1313;3027650;-67
2022/03/23 01:32:35;;;;;;;37.50;13.70;;;;;;;3.33;37.79;100983.55;25189;1315;3027010;-69
2022/03/23 01:35:18;;;;;;;30.90;14.10;;;;;;;3.31;37.32;100986.16;24730;1316;3567973;-71
2022/03/23 01:37:50;;;;;;;28.20;14.00;;;;;;;3.29;37.66;100980.10;25131;1313;3027364;-69
2022/03/23 01:40:19;;;;;;;32.60;14.90;;;;;;;3.30;37.51;100978.89;25168;1316;3027517;-67
2022/03/23 01:42:47;;;;;;;28.70;13.10;;;;;;;3.31;37.65;100981.83;25085;1314;3067213;-69
2022/03/23 01:45:16;;;;;;;27.50;13.70;;;;;;;3.30;37.63;100979.94;25189;1313;3026512;-67
2022/03/23 01:47:45;;;;;;;33.00;14.20;;;;;;;3.29;37.67;100980.11;25127;1313;3055107;-68
2022/03/23 01:50:15;;;;;;;27.30;12.00;;;;;;;3.25;37.68;100978.58;25152;1315;3026271;-64
2022/03/23 01:52:44;;;;;;;34.10;12.50;;;;;;;3.24;37.92;100977.54;25118;1316;3027632;-67
2022/03/23 01:55:14;;;;;;;26.90;11.50;;;;;;;3.23;37.95;100983.95;25152;1316;3050305;-67
2022/03/23 01:57:47;;;;;;;27.80;12.10;;;;;;;3.21;38.47;100985.53;25107;1316;3026812;-66
2022/03/23 02:00:20;;;;;;;27.70;11.00;;;;;;;3.19;38.43;100982.94;25159;1315;3051950;-66
2022/03/23 02:03:11;;;;;;;26.20;10.60;;;;;;;3.19;38.27;100976.02;25131;1316;3055280;-68
2022/03/23 02:05:40;;;;;;;28.60;11.60;;;;;;;3.17;38.34;100972.56;25150;1316;3026402;-67
2022/03/23 02:08:15;;;;;;;29.60;11.20;;;;;;;3.15;38.88;100972.92;25147;1313;3058754;-68
2022/03/23 02:10:45;;;;;;;27.30;11.60;;;;;;;3.11;39.03;100974.34;25139;1316;3026500;-64
2022/03/23 02:13:17;;;;;;;28.10;11.20;;;;;;;3.10;39.45;100976.92;25159;1316;3027591;-68
2022/03/23 02:15:47;;;;;;;25.20;10.50;;;;;;;3.07;38.53;100982.66;25123;1315;3026862;-69
2022/03/23 02:18:16;;;;;;;27.40;10.40;;;;;;;3.05;38.59;100981.98;25102;1316;3027256;-68
2022/03/23 02:20:45;;;;;;;25.50;10.20;;;;;;;3.04;38.63;100980.27;25206;1313;3052875;-65
2022/03/23 02:23:14;;;;;;;25.40;11.50;;;;;;;3.05;38.63;100979.20;25166;1313;3027573;-67
2022/03/23 02:25:43;;;;;;;30.40;11.10;;;;;;;3.04;38.43;100981.12;25184;1313;3053349;-67
2022/03/23 02:28:15;;;;;;;23.40;10.00;;;;;;;3.03;38.19;100976.98;25134;1316;3025950;-71
2022/03/23 02:30:45;;;;;;;24.80;9.80;;;;;;;3.04;38.09;100979.73;25165;1314;3026773;-67
2022/03/23 02:33:19;;;;;;;25.10;9.70;;;;;;;3.06;38.26;100978.86;25128;1313;3052321;-69
2022/03/23 02:35:48;;;;;;;24.30;10.50;;;;;;;3.07;38.08;100973.84;25151;1316;3055008;-67
2022/03/23 02:38:18;;;;;;;27.30;10.80;;;;;;;3.06;38.00;100970.71;25161;1314;3027377;-71
2022/03/23 02:40:47;;;;;;;24.10;10.00;;;;;;;3.07;38.08;100971.77;25101;1313;3026682;-65
2022/03/23 02:43:17;;;;;;;23.90;10.50;;;;;;;3.05;37.99;100965.53;25178;1313;3027108;-66
2022/03/23 02:45:45;;;;;;;23.50;9.60;;;;;;;3.04;38.27;100969.86;25111;1313;3026788;-68
2022/03/23 02:48:16;;;;;;;22.40;8.80;;;;;;;3.04;37.87;100964.84;25162;1313;3070344;-68
2022/03/23 02:50:46;;;;;;;23.30;9.80;;;;;;;3.04;38.24;100968.13;25102;1319;3026006;-69
2022/03/23 03:02:36;;;;;;;25.20;11.70;;;;;;;3.48;37.36;100959.35;25010;1319;3052418;-69
2022/03/23 03:05:07;;;;;;;24.20;10.20;;;;;;;3.31;37.62;100958.45;25089;1319;3057589;-66
2022/03/23 03:10:25;;;;;;;20.30;9.70;;;;;;;3.18;37.86;100955.94;24833;1319;3349747;-71
2022/03/23 03:13:14;;;;;;;22.10;10.50;;;;;;;3.13;38.44;100951.80;25044;1319;3049877;-67
2022/03/23 03:15:46;;;;;;;23.80;10.10;;;;;;;3.07;38.27;100949.77;25068;1317;3029094;-67
2022/03/23 03:18:35;;;;;;;23.20;9.20;;;;;;;3.01;38.33;100949.10;25074;1319;3049285;-69
2022/03/23 03:21:06;;;;;;;24.80;9.50;;;;;;;2.97;37.96;100950.34;25127;1316;3026822;-68
2022/03/23 03:23:51;;;;;;;22.70;9.90;;;;;;;2.85;37.98;100942.27;25104;1316;3069660;-65
2022/03/23 03:26:20;;;;;;;22.00;9.40;;;;;;;2.74;37.46;100940.59;25141;1315;3027047;-65
2022/03/23 03:28:50;;;;;;;19.60;9.50;;;;;;;2.66;37.59;100944.42;25109;1316;3052391;-64
2022/03/23 03:31:19;;;;;;;20.20;8.70;;;;;;;2.65;37.40;100952.92;25098;1316;3026464;-67
2022/03/23 03:33:48;;;;;;;23.10;9.00;;;;;;;2.62;37.50;100960.20;25146;1316;3026683;-67
2022/03/23 03:36:18;;;;;;;21.50;9.30;;;;;;;2.59;37.69;100954.50;25129;1315;3052995;-68
2022/03/23 03:38:46;;;;;;;18.30;9.40;;;;;;;2.57;37.70;100952.44;25128;1315;3026410;-68
2022/03/23 03:41:18;;;;;;;18.40;9.10;;;;;;;2.54;37.56;100952.45;25113;1314;3055930;-71
2022/03/23 03:43:48;;;;;;;26.90;9.80;;;;;;;2.52;37.96;100952.80;25149;1316;3026312;-70
2022/03/23 03:46:18;;;;;;;18.70;9.50;;;;;;;2.50;37.99;100951.95;25096;1316;3027222;-69
2022/03/23 03:48:47;;;;;;;19.50;9.40;;;;;;;2.51;37.80;100951.59;25171;1316;3026716;-68
2022/03/23 03:51:16;;;;;;;20.90;9.50;;;;;;;2.50;37.43;100945.36;25126;1316;3052801;-66
2022/03/23 03:53:45;;;;;;;32.80;10.20;;;;;;;2.49;37.78;100945.55;25137;1316;3026451;-67
2022/03/23 03:56:14;;;;;;;25.80;9.70;;;;;;;2.47;38.10;100946.59;25128;1316;3052573;-66
2022/03/23 03:58:43;;;;;;;23.10;9.90;;;;;;;2.48;38.27;100947.96;25183;1313;3026970;-68
2022/03/23 04:01:14;;;;;;;24.20;9.60;;;;;;;2.48;38.42;100948.66;25145;1316;3049283;-67
2022/03/23 04:03:43;;;;;;;19.10;9.50;;;;;;;2.51;38.07;100947.09;25169;1315;3031329;-70
2022/03/23 04:06:13;;;;;;;21.40;10.20;;;;;;;2.54;37.86;100943.97;25141;1313;3026122;-68
2022/03/23 04:08:42;;;;;;;26.40;9.90;;;;;;;2.52;38.13;100944.84;25162;1314;3026085;-67
2022/03/23 04:11:11;;;;;;;23.40;10.40;;;;;;;2.52;37.92;100944.33;25078;1315;3054828;-70
2022/03/23 04:13:40;;;;;;;25.10;10.10;;;;;;;2.56;38.00;100941.70;25191;1316;3026801;-69
2022/03/23 04:16:09;;;;;;;20.70;9.30;;;;;;;2.59;37.97;100938.77;25093;1316;3048402;-68
2022/03/23 04:18:39;;;;;;;22.20;9.40;;;;;;;2.61;37.78;100936.85;25115;1316;3026964;-69
2022/03/23 04:21:09;;;;;;;25.00;11.10;;;;;;;2.63;37.92;100938.91;25172;1316;3026763;-71
2022/03/23 04:23:38;;;;;;;20.40;9.50;;;;;;;2.62;37.81;100939.44;25090;1316;3049585;-70
2022/03/23 04:26:07;;;;;;;27.70;10.60;;;;;;;2.64;37.88;100940.13;25181;1314;3026849;-71
2022/03/23 04:28:36;;;;;;;26.70;10.70;;;;;;;2.64;37.56;100939.09;25124;1316;3054843;-70
2022/03/23 04:31:06;;;;;;;22.90;10.80;;;;;;;2.66;37.45;100938.39;25151;1316;3026310;-66
2022/03/23 04:33:35;;;;;;;32.70;13.00;;;;;;;2.70;37.24;100936.64;25172;1313;3052653;-66
2022/03/23 04:36:06;;;;;;;32.10;13.50;;;;;;;2.72;37.34;100938.88;25129;1316;3026006;-67
2022/03/23 04:38:36;;;;;;;40.10;14.40;;;;;;;2.74;37.26;100935.92;25116;1316;3054835;-69
2022/03/23 04:41:05;;;;;;;34.00;14.30;;;;;;;2.72;37.17;100931.78;25135;1316;3028721;-69
2022/03/23 04:43:36;;;;;;;31.40;13.00;;;;;;;2.74;37.24;100934.02;25149;1316;3051811;-68
2022/03/23 04:46:06;;;;;;;29.90;12.00;;;;;;;2.72;37.22;100932.82;25077;1316;3026303;-68
2022/03/23 04:48:35;;;;;;;26.80;12.20;;;;;;;2.68;37.33;100927.82;25139;1316;3026843;-68
2022/03/23 04:51:05;;;;;;;30.20;12.00;;;;;;;2.71;37.33;100931.09;25080;1314;3052081;-70
2022/03/23 04:53:34;;;;;;;26.40;11.00;;;;;;;2.74;37.32;100934.36;25133;1316;3027527;-69
2022/03/23 04:56:03;;;;;;;34.60;12.70;;;;;;;2.78;37.05;100938.85;25165;1316;3026478;-68
2022/03/23 04:58:33;;;;;;;28.90;12.40;;;;;;;2.84;37.17;100942.97;25135;1316;3051566;-70
2022/03/23 05:01:02;;;;;;;29.40;12.00;;;;;;;2.82;37.24;100944.20;25111;1316;3028930;-69
2022/03/23 05:03:34;;;;;;;29.30;13.00;;;;;;;2.87;37.39;100944.69;25090;1315;3026879;-68
2022/03/23 05:06:03;;;;;;;28.70;11.60;;;;;;;2.96;36.96;100946.36;25115;1312;3026993;-67
2022/03/23 05:08:33;;;;;;;36.90;12.30;;;;;;;3.03;36.76;100944.95;25180;1313;3026521;-68
2022/03/23 05:11:02;;;;;;;26.80;11.50;;;;;;;3.07;36.81;100947.69;25110;1316;3026021;-69
2022/03/23 05:13:33;;;;;;;27.70;11.30;;;;;;;3.10;36.85;100946.45;25158;1313;3058715;-67
2022/03/23 05:16:03;;;;;;;31.00;12.40;;;;;;;3.17;36.70;100947.80;25149;1312;3026954;-66
2022/03/23 05:18:33;;;;;;;32.10;11.30;;;;;;;3.20;36.37;100947.43;25161;1313;3026804;-67
2022/03/23 05:21:02;;;;;;;24.90;12.00;;;;;;;3.26;36.14;100947.91;25112;1313;3026380;-68
2022/03/23 05:23:33;;;;;;;28.30;11.90;;;;;;;3.28;36.14;100946.69;25145;1313;3026637;-70
2022/03/23 05:26:01;;;;;;;26.00;11.00;;;;;;;3.24;35.79;100939.10;25099;1316;3028907;-71
2022/03/23 05:28:31;;;;;;;28.30;10.40;;;;;;;3.28;35.72;100946.86;25145;1314;3053513;-68
2022/03/23 05:31:00;;;;;;;21.30;10.70;;;;;;;3.31;35.44;100944.59;25176;1313;3027046;-71
2022/03/23 05:33:29;;;;;;;21.10;10.40;;;;;;;3.28;35.17;100943.40;25117;1312;3053113;-68
2022/03/23 05:36:00;;;;;;;21.40;10.40;;;;;;;3.28;34.85;100942.35;25185;1313;3029182;-68
2022/03/23 05:38:29;;;;;;;20.20;10.40;;;;;;;3.39;34.72;100941.75;25145;1316;3048890;-71
2022/03/23 05:40:58;;;;;;;25.00;10.40;;;;;;;3.46;34.96;100937.73;25170;1316;3026959;-70
2022/03/23 05:43:27;;;;;;;23.00;10.70;;;;;;;3.59;34.88;100940.73;25105;1313;3058131;-68
2022/03/23 05:45:56;;;;;;;22.20;10.70;;;;;;;3.65;35.09;100941.20;25151;1314;3029713;-69
2022/03/23 05:48:25;;;;;;;20.30;10.20;;;;;;;3.72;34.97;100937.33;25189;1316;3054052;-71
2022/03/23 05:50:54;;;;;;;24.40;10.90;;;;;;;3.78;35.18;100937.80;25129;1312;3029660;-68
2022/03/23 05:53:23;;;;;;;20.20;10.80;;;;;;;3.82;35.34;100934.80;25107;1313;3054001;-70
2022/03/23 05:55:53;;;;;;;23.10;12.10;;;;;;;3.93;35.22;100935.40;25163;1313;3026935;-68
2022/03/23 05:58:26;;;;;;;24.80;10.40;;;;;;;4.03;35.55;100937.38;25167;1313;3026691;-67
2022/03/23 06:00:55;;;;;;;25.00;11.30;;;;;;;4.12;35.54;100936.77;25142;1316;3028185;-67
2022/03/23 06:03:23;;;;;;;31.00;12.30;;;;;;;4.21;35.83;100937.90;25133;1316;3050311;-68
2022/03/23 06:05:52;;;;;;;34.40;12.60;;;;;;;4.35;35.78;100936.88;25173;1313;3030156;-70
2022/03/23 06:08:21;;;;;;;28.40;11.40;;;;;;;4.39;36.03;100934.22;25076;1316;3053845;-65
2022/03/23 06:11:10;;;;;;;26.00;11.50;;;;;;;4.55;35.71;100931.27;25159;1316;3051910;-68
2022/03/23 06:13:39;;;;;;;27.80;10.60;;;;;;;4.63;35.59;100932.02;25124;1313;3026517;-70
2022/03/23 06:16:09;;;;;;;29.30;10.50;;;;;;;4.74;35.39;100929.80;25136;1313;3030001;-67
2022/03/23 06:18:47;;;;;;;29.40;10.80;;;;;;;4.83;35.35;100929.34;25134;1316;3054331;-68
2022/03/23 06:21:16;;;;;;;27.60;11.90;;;;;;;4.88;35.36;100930.30;25138;1316;3027240;-71
2022/03/23 06:23:46;;;;;;;24.30;11.30;;;;;;;4.97;35.24;100933.48;25118;1315;3052223;-68
2022/03/23 06:26:34;;;;;;;28.80;13.00;;;;;;;5.16;34.91;100931.64;25194;1313;3054533;-65
2022/03/23 06:29:04;;;;;;;32.80;12.80;;;;;;;5.33;35.01;100929.31;25129;1315;3026230;-69
2022/03/23 06:31:33;;;;;;;23.50;12.00;;;;;;;5.48;34.87;100929.41;25150;1316;3026922;-66
2022/03/23 06:34:04;;;;;;;26.20;11.90;;;;;;;5.57;34.57;100931.02;25130;1313;3054248;-68
2022/03/23 06:36:35;;;;;;;20.70;7.30;;;;;;;5.58;34.19;100927.16;25148;1313;3026131;-67
2022/03/23 06:39:04;;;;;;;14.40;6.90;;;;;;;5.57;33.89;100924.56;25139;1316;3027209;-69
2022/03/23 06:41:33;;;;;;;19.40;7.00;;;;;;;5.69;33.41;100920.56;25117;1313;3026494;-69
2022/03/23 06:44:03;;;;;;;21.10;9.30;;;;;;;5.81;33.68;100919.29;25130;1316;3058706;-68
2022/03/23 06:46:32;;;;;;;27.80;9.30;;;;;;;5.85;33.52;100916.45;25113;1313;3028867;-69
2022/03/23 06:49:02;;;;;;;21.80;9.30;;;;;;;5.90;33.34;100914.45;25085;1316;3026992;-68
2022/03/23 06:51:31;;;;;;;21.30;9.20;;;;;;;6.07;33.46;100915.73;25144;1316;3026947;-67
2022/03/23 06:54:00;;;;;;;17.50;8.60;;;;;;;6.07;32.66;100913.46;25084;1316;3048975;-68
2022/03/23 06:56:29;;;;;;;22.70;8.80;;;;;;;6.16;32.67;100912.43;25144;1316;3026452;-69
2022/03/23 06:58:58;;;;;;;22.40;8.60;;;;;;;6.29;32.62;100912.54;25129;1316;3056314;-68
2022/03/23 07:01:27;;;;;;;18.60;8.40;;;;;;;6.43;32.72;100908.95;25127;1313;3027148;-67
2022/03/23 07:03:56;;;;;;;23.60;8.70;;;;;;;6.54;32.55;100909.57;25168;1316;3052818;-66
2022/03/23 07:06:25;;;;;;;14.20;7.70;;;;;;;6.59;32.25;100904.26;25116;1313;3026462;-68
2022/03/23 07:12:05;;;;;;;17.90;7.60;;;;;;;6.78;32.13;100901.77;25134;1316;3052993;-69
2022/03/23 07:14:36;;;;;;;18.60;7.70;;;;;;;6.92;31.87;100898.13;25164;1316;3026488;-71
2022/03/23 07:17:05;;;;;;;15.10;6.20;;;;;;;7.01;31.07;100893.76;25188;1316;3026412;-66
2022/03/23 07:19:35;;;;;;;10.40;5.90;;;;;;;7.03;30.41;100895.10;25128;1313;3026549;-67
2022/03/23 07:22:06;;;;;;;17.00;7.20;;;;;;;7.16;30.64;100895.16;25138;1316;3026564;-69
2022/03/23 07:24:36;;;;;;;17.60;7.70;;;;;;;7.29;30.53;100891.18;25088;1316;3026606;-68
2022/03/23 07:27:25;;;;;;;11.90;6.20;;;;;;;7.31;29.89;100895.14;25142;1316;3049364;-69
2022/03/23 07:29:55;;;;;;;18.30;7.60;;;;;;;7.33;29.81;100894.05;25172;1313;3027140;-67
2022/03/23 07:32:24;;;;;;;16.90;7.80;;;;;;;7.43;30.28;100894.68;25163;1316;3026252;-69
2022/03/23 07:34:53;;;;;;;19.50;8.00;;;;;;;7.49;30.29;100891.39;25129;1313;3026332;-68
2022/03/23 07:37:22;;;;;;;18.80;7.30;;;;;;;7.58;30.15;100886.81;25144;1313;3051846;-67
2022/03/23 07:39:52;;;;;;;19.90;8.20;;;;;;;7.66;30.06;100885.20;25125;1316;3026544;-68
2022/03/23 07:42:21;;;;;;;15.60;7.60;;;;;;;7.76;29.92;100883.02;25173;1313;3028245;-69
2022/03/23 07:44:50;;;;;;;18.20;7.80;;;;;;;7.93;29.63;100881.88;25115;1316;3053843;-69
2022/03/23 07:47:19;;;;;;;12.70;7.30;;;;;;;8.11;29.50;100882.09;25186;1316;3027340;-66
2022/03/23 07:49:50;;;;;;;17.50;7.30;;;;;;;8.25;29.42;100881.00;25126;1316;3050691;-68
2022/03/23 07:52:19;;;;;;;21.80;7.60;;;;;;;8.39;29.18;100876.58;25160;1313;3029691;-68
2022/03/23 07:54:48;;;;;;;21.30;9.20;;;;;;;8.38;28.62;100874.52;25114;1313;3069384;-68
2022/03/23 07:57:17;;;;;;;16.30;7.10;;;;;;;8.35;28.88;100871.10;25174;1316;3029786;-68
2022/03/23 07:59:46;;;;;;;15.40;7.10;;;;;;;8.39;28.40;100868.73;25162;1313;3051830;-67
2022/03/23 08:02:15;;;;;;;20.10;6.40;;;;;;;8.44;27.74;100871.02;25124;1316;3025848;-69
2022/03/23 08:04:44;;;;;;;17.10;5.60;;;;;;;8.49;27.30;100870.21;25147;1313;3053915;-67
2022/03/23 08:07:13;;;;;;;17.50;6.30;;;;;;;8.57;26.86;100865.59;25150;1312;3029087;-68
2022/03/23 08:09:43;;;;;;;18.60;7.00;;;;;;;8.62;26.87;100865.13;25144;1313;3052050;-68
2022/03/23 08:12:12;;;;;;;14.80;6.50;;;;;;;8.72;27.04;100861.66;25160;1313;3028415;-68
2022/03/23 08:14:41;;;;;;;21.10;6.50;;;;;;;8.83;27.02;100858.16;25133;1313;3056906;-69
2022/03/23 08:17:11;;;;;;;16.40;8.10;;;;;;;8.83;26.66;100856.42;25124;1319;3026674;-68
2022/03/23 08:19:40;;;;;;;21.10;7.20;;;;;;;8.78;26.59;100851.17;25103;1316;3055097;-70
2022/03/23 08:22:09;;;;;;;15.60;7.30;;;;;;;8.83;26.62;100851.02;25144;1316;3026435;-68
2022/03/23 08:24:39;;;;;;;20.10;8.10;;;;;;;8.84;26.69;100845.92;25208;1313;3055391;-68
2022/03/23 08:27:08;;;;;;;23.80;7.90;;;;;;;8.68;26.79;100844.15;25147;1313;3026935;-68
2022/03/23 08:29:38;;;;;;;23.00;7.40;;;;;;;8.86;26.90;100841.48;25176;1312;3048703;-69
2022/03/23 08:32:07;;;;;;;16.80;7.80;;;;;;;9.00;26.64;100840.52;25164;1316;3026865;-65
2022/03/23 08:34:37;;;;;;;28.30;10.20;;;;;;;9.05;26.79;100837.05;25148;1313;3026463;-66
2022/03/23 08:37:06;;;;;;;27.40;8.10;;;;;;;9.23;27.03;100835.92;25163;1314;3026416;-65
2022/03/23 08:39:36;;;;;;;20.00;7.40;;;;;;;9.22;26.64;100829.65;25133;1313;3054347;-66
2022/03/23 08:42:06;;;;;;;20.10;7.60;;;;;;;9.19;26.32;100820.52;25155;1313;3026680;-67
2022/03/23 08:44:35;;;;;;;17.40;8.80;;;;;;;9.31;26.62;100818.87;25165;1313;3048144;-66
2022/03/23 08:47:04;;;;;;;19.30;7.70;;;;;;;9.35;26.30;100816.81;25152;1316;3026758;-68
2022/03/23 08:49:34;;;;;;;22.10;6.20;;;;;;;9.48;26.26;100818.11;25131;1316;3069069;-66
2022/03/23 08:52:03;;;;;;;12.20;5.70;;;;;;;9.41;26.02;100810.48;25152;1313;3026636;-66
2022/03/23 08:54:32;;;;;;;20.20;5.40;;;;;;;9.46;26.10;100809.10;25127;1312;3049465;-65
2022/03/23 08:57:01;;;;;;;12.20;5.40;;;;;;;9.74;26.42;100811.11;25099;1313;3026881;-66
2022/03/23 08:59:31;;;;;;;19.00;6.50;;;;;;;10.00;26.15;100801.39;25157;1319;3027075;-69
2022/03/23 09:02:00;;;;;;;10.40;5.40;;;;;;;10.14;25.49;100795.12;25145;1316;3028620;-68
2022/03/23 09:04:29;;;;;;;13.00;6.20;;;;;;;10.29;25.63;100791.21;25131;1313;3026239;-65
2022/03/23 09:06:58;;;;;;;17.30;6.90;;;;;;;10.37;25.29;100786.73;25148;1314;3050745;-68
2022/03/23 09:09:27;;;;;;;19.20;7.00;;;;;;;10.43;25.47;100787.90;25188;1313;3028342;-65
2022/03/23 09:12:16;;;;;;;16.40;7.40;;;;;;;10.44;25.21;100781.95;25089;1316;3068806;-68
2022/03/23 09:14:46;;;;;;;19.10;6.80;;;;;;;10.37;25.07;100779.18;25142;1313;3026465;-66
2022/03/23 09:17:16;;;;;;;15.00;6.50;;;;;;;10.47;25.48;100780.05;25137;1313;3026988;-63
2022/03/23 09:19:46;;;;;;;17.40;7.30;;;;;;;10.66;25.34;100777.91;25136;1316;3026764;-66
2022/03/23 09:22:15;;;;;;;18.20;7.60;;;;;;;10.83;25.40;100775.46;25155;1312;3027823;-64
2022/03/23 09:24:44;;;;;;;12.40;7.20;;;;;;;10.95;25.21;100772.69;25123;1313;3051939;-65
2022/03/23 09:27:14;;;;;;;19.10;7.10;;;;;;;11.07;24.81;100765.70;25194;1314;3026723;-64
2022/03/23 09:29:44;;;;;;;19.00;8.80;;;;;;;11.03;24.69;100763.93;25152;1316;3048519;-64
2022/03/23 09:32:14;;;;;;;21.30;8.50;;;;;;;11.21;24.79;100764.09;25181;1316;3026796;-69
2022/03/23 09:34:45;;;;;;;15.50;8.10;;;;;;;11.36;24.96;100762.75;25125;1315;3026590;-69
2022/03/23 09:40:03;;;;;;;17.30;7.50;;;;;;;11.36;25.49;100753.24;25139;1316;3052614;-67
2022/03/23 09:42:34;;;;;;;15.70;7.30;;;;;;;11.46;25.45;100748.98;25149;1316;3027104;-64
2022/03/23 09:45:03;;;;;;;18.50;7.30;;;;;;;11.65;25.23;100743.40;25137;1316;3026548;-68
2022/03/23 09:47:36;;;;;;;18.00;7.50;;;;;;;11.68;24.98;100738.87;25157;1316;3027596;-64
2022/03/23 09:50:07;;;;;;;19.20;8.40;;;;;;;11.74;25.03;100744.74;25107;1316;3027269;-65
2022/03/23 09:52:37;;;;;;;16.60;7.30;;;;;;;11.67;24.78;100738.73;25132;1319;3026243;-63
2022/03/23 09:55:06;;;;;;;20.30;7.50;;;;;;;11.76;24.90;100737.83;25126;1315;3026962;-67
2022/03/23 09:57:37;;;;;;;20.60;7.30;;;;;;;11.78;24.73;100731.40;25041;1316;3027150;-68
2022/03/23 10:00:10;;;;;;;22.60;8.60;;;;;;;11.87;24.50;100726.08;25113;1315;3028153;-67
2022/03/23 10:03:11;;;;;;;18.70;8.50;;;;;;;11.74;24.25;100718.77;25171;1314;3052346;-66
2022/03/23 10:05:49;;;;;;;23.70;9.30;;;;;;;11.81;24.42;100712.81;25137;1316;3056440;-66
2022/03/23 10:08:43;;;;;;;23.20;8.90;;;;;;;11.88;23.87;100708.14;25122;1316;3052166;-67
2022/03/23 10:12:10;;;;;;;21.90;8.60;;;;;;;12.02;23.52;100698.88;25046;1315;3056366;-68
2022/03/23 10:15:19;;;;;;;26.10;9.50;;;;;;;12.10;23.35;100698.54;25149;1315;3053917;-67
2022/03/23 10:18:23;;;;;;;27.80;9.30;;;;;;;12.13;23.20;100692.77;25123;1316;3067807;-66
2022/03/23 10:21:11;;;;;;;19.50;9.20;;;;;;;12.27;23.31;100692.98;25133;1319;3049288;-66
2022/03/23 10:24:13;;;;;;;23.30;9.80;;;;;;;12.35;23.11;100690.48;25085;1315;3026222;-68
2022/03/23 10:26:42;;;;;;;24.60;9.30;;;;;;;12.49;22.87;100683.49;25098;1318;3073369;-67
2022/03/23 10:29:22;;;;;;;21.00;9.80;;;;;;;12.48;22.47;100679.46;25068;1316;3026825;-64
2022/03/23 10:32:09;;;;;;;19.60;9.00;;;;;;;12.53;22.22;100674.30;25119;1316;3051871;-64
2022/03/23 10:34:48;;;;;;;19.60;9.00;;;;;;;12.62;21.81;100666.65;25169;1316;3071193;-65
2022/03/23 10:37:25;;;;;;;23.30;8.80;;;;;;;12.65;21.89;100664.96;25156;1316;3053189;-65
2022/03/23 10:39:55;;;;;;;20.60;8.40;;;;;;;12.72;21.64;100659.67;25123;1316;3053543;-66
2022/03/23 10:42:27;;;;;;;23.00;8.20;;;;;;;12.79;21.28;100655.45;25150;1316;3025547;-66
2022/03/23 10:45:10;;;;;;;17.70;7.70;;;;;;;12.90;21.06;100653.14;25112;1316;3027379;-68
2022/03/23 10:47:40;;;;;;;19.50;7.10;;;;;;;12.83;20.37;100642.20;25079;1316;3052940;-68
2022/03/23 10:50:10;;;;;;;16.70;7.20;;;;;;;12.81;20.67;100639.55;25119;1316;3026487;-66
2022/03/23 10:52:59;;;;;;;19.10;7.70;;;;;;;12.94;20.76;100630.24;25146;1316;3026672;-67
2022/03/23 10:55:32;;;;;;;15.60;8.50;;;;;;;12.99;20.81;100624.90;25090;1316;3071995;-67
2022/03/23 10:58:02;;;;;;;26.60;8.30;;;;;;;13.00;20.69;100616.23;25125;1316;3048876;-67
2022/03/23 11:00:37;;;;;;;23.10;8.40;;;;;;;12.90;20.75;100616.36;25106;1316;3026882;-67
2022/03/23 11:03:07;;;;;;;13.60;8.60;;;;;;;12.88;20.63;100613.66;25088;1316;3054110;-66
2022/03/23 11:05:47;;;;;;;18.30;8.60;;;;;;;12.77;20.76;100611.95;25132;1316;3029846;-69
2022/03/23 11:08:23;;;;;;;20.50;9.30;;;;;;;12.71;20.89;100609.61;25090;1316;3049683;-66
2022/03/23 11:16:45;;;;;;;18.80;8.80;;;;;;;12.96;20.79;100594.98;25140;1313;3071019;-65
2022/03/23 11:19:20;;;;;;;24.00;8.60;;;;;;;13.14;20.70;100594.35;25127;1315;3026548;-64
2022/03/23 11:22:12;;;;;;;18.40;9.20;;;;;;;13.27;20.68;100588.92;25176;1313;3051334;-66
2022/03/23 11:24:46;;;;;;;22.10;9.50;;;;;;;13.35;20.66;100584.28;25116;1313;3052558;-66
2022/03/23 11:27:32;;;;;;;25.90;9.80;;;;;;;13.38;20.45;100582.36;25114;1315;3059527;-66
2022/03/23 11:30:02;;;;;;;24.20;9.50;;;;;;;13.58;20.36;100577.21;25114;1313;3026319;-66
2022/03/23 11:32:37;;;;;;;23.40;9.60;;;;;;;13.59;20.52;100575.25;25108;1313;3026415;-66
2022/03/23 11:35:07;;;;;;;26.80;9.70;;;;;;;13.69;20.10;100572.75;25144;1312;3053954;-66
2022/03/23 11:37:36;;;;;;;27.50;10.00;;;;;;;13.88;20.16;100566.92;25144;1313;3028711;-66
2022/03/23 11:40:05;;;;;;;20.40;9.80;;;;;;;13.92;20.01;100563.88;25162;1316;3026601;-66
2022/03/23 11:42:36;;;;;;;24.00;10.00;;;;;;;13.84;19.73;100565.03;25104;1315;3053835;-67
2022/03/23 11:45:06;;;;;;;36.40;11.10;;;;;;;13.96;19.52;100563.65;25096;1316;3028470;-66
2022/03/23 11:47:38;;;;;;;32.10;10.20;;;;;;;13.99;19.76;100556.30;25129;1313;3054688;-65
2022/03/23 11:50:26;;;;;;;30.30;11.90;;;;;;;14.02;19.66;100551.17;25138;1313;3027145;-68